sensor_id;sensor_type;location;lat;lon;timestamp;temperature;humidity
18361;SHT31;9308;48.550;9.108;2023-02-28T00:01:09;-1.14;61.56
18361;SHT31;9308;48.550;9.108;2023-02-28T00:03:34;-1.21;61.96
18361;SHT31;9308;48.550;9.108;2023-02-28T00:06:02;-1.15;61.72
18361;SHT31;9308;48.550;9.108;2023-02-28T00:08:28;-0.88;61.02
18361;SHT31;9308;48.550;9.108;2023-02-28T00:10:54;-1.05;61.13
18361;SHT31;9308;48.550;9.108;2023-02-28T00:13:20;-1.18;61.72
18361;SHT31;9308;48.550;9.108;2023-02-28T00:15:45;-1.22;61.81
18361;SHT31;9308;48.550;9.108;2023-02-28T00:18:11;-1.29;61.92
18361;SHT31;9308;48.550;9.108;2023-02-28T00:20:37;-1.19;61.87
18361;SHT31;9308;48.550;9.108;2023-02-28T00:23:02;-1.14;61.98
18361;SHT31;9308;48.550;9.108;2023-02-28T00:25:28;-1.31;62.12
18361;SHT31;9308;48.550;9.108;2023-02-28T00:27:53;-1.39;62.43
18361;SHT31;9308;48.550;9.108;2023-02-28T00:30:21;-1.29;62.41
18361;SHT31;9308;48.550;9.108;2023-02-28T00:32:47;-1.28;62.58
18361;SHT31;9308;48.550;9.108;2023-02-28T00:35:13;-1.35;62.63
18361;SHT31;9308;48.550;9.108;2023-02-28T00:37:39;-1.43;63.10
18361;SHT31;9308;48.550;9.108;2023-02-28T00:40:05;-1.55;63.20
18361;SHT31;9308;48.550;9.108;2023-02-28T00:42:32;-1.40;63.04
18361;SHT31;9308;48.550;9.108;2023-02-28T00:44:57;-1.39;62.80
18361;SHT31;9308;48.550;9.108;2023-02-28T00:47:23;-1.27;62.75
18361;SHT31;9308;48.550;9.108;2023-02-28T00:49:48;-1.10;62.03
18361;SHT31;9308;48.550;9.108;2023-02-28T00:52:14;-1.17;62.39
18361;SHT31;9308;48.550;9.108;2023-02-28T00:54:39;-1.35;62.85
18361;SHT31;9308;48.550;9.108;2023-02-28T00:57:04;-1.43;63.04
18361;SHT31;9308;48.550;9.108;2023-02-28T00:59:30;-1.45;63.22
18361;SHT31;9308;48.550;9.108;2023-02-28T01:01:55;-1.43;63.47
18361;SHT31;9308;48.550;9.108;2023-02-28T01:04:21;-1.63;63.54
18361;SHT31;9308;48.550;9.108;2023-02-28T01:06:47;-1.49;63.90
18361;SHT31;9308;48.550;9.108;2023-02-28T01:09:12;-1.34;63.37
18361;SHT31;9308;48.550;9.108;2023-02-28T01:11:38;-1.15;62.53
18361;SHT31;9308;48.550;9.108;2023-02-28T01:14:04;-1.22;62.44
18361;SHT31;9308;48.550;9.108;2023-02-28T01:16:30;-1.29;63.05
18361;SHT31;9308;48.550;9.108;2023-02-28T01:18:56;-1.62;64.06
18361;SHT31;9308;48.550;9.108;2023-02-28T01:21:22;-1.68;64.41
18361;SHT31;9308;48.550;9.108;2023-02-28T01:23:47;-1.48;63.81
18361;SHT31;9308;48.550;9.108;2023-02-28T01:26:21;-1.52;63.98
18361;SHT31;9308;48.550;9.108;2023-02-28T01:28:48;-1.31;62.96
18361;SHT31;9308;48.550;9.108;2023-02-28T01:31:14;-1.34;63.39
18361;SHT31;9308;48.550;9.108;2023-02-28T01:33:40;-1.27;62.97
18361;SHT31;9308;48.550;9.108;2023-02-28T01:36:14;-1.35;63.74
18361;SHT31;9308;48.550;9.108;2023-02-28T01:38:40;-1.46;64.19
18361;SHT31;9308;48.550;9.108;2023-02-28T01:41:07;-1.48;64.07
18361;SHT31;9308;48.550;9.108;2023-02-28T01:43:57;-1.71;64.74
18361;SHT31;9308;48.550;9.108;2023-02-28T01:46:23;-1.78;65.12
18361;SHT31;9308;48.550;9.108;2023-02-28T01:51:26;-1.55;64.87
18361;SHT31;9308;48.550;9.108;2023-02-28T01:54:03;-1.70;65.41
18361;SHT31;9308;48.550;9.108;2023-02-28T01:56:33;-1.56;65.56
18361;SHT31;9308;48.550;9.108;2023-02-28T01:59:00;-1.62;65.15
18361;SHT31;9308;48.550;9.108;2023-02-28T02:01:27;-1.59;64.84
18361;SHT31;9308;48.550;9.108;2023-02-28T02:03:56;-1.59;65.44
18361;SHT31;9308;48.550;9.108;2023-02-28T02:06:25;-1.67;65.58
18361;SHT31;9308;48.550;9.108;2023-02-28T02:08:52;-1.64;66.08
18361;SHT31;9308;48.550;9.108;2023-02-28T02:11:19;-1.78;66.75
18361;SHT31;9308;48.550;9.108;2023-02-28T02:21:29;-1.55;66.13
18361;SHT31;9308;48.550;9.108;2023-02-28T02:32:47;-1.55;66.28
18361;SHT31;9308;48.550;9.108;2023-02-28T02:35:34;-1.45;66.14
18361;SHT31;9308;48.550;9.108;2023-02-28T02:38:21;-1.45;65.73
18361;SHT31;9308;48.550;9.108;2023-02-28T02:41:03;-1.56;65.98
18361;SHT31;9308;48.550;9.108;2023-02-28T02:46:04;-1.64;66.29
18361;SHT31;9308;48.550;9.108;2023-02-28T02:48:33;-1.27;65.39
18361;SHT31;9308;48.550;9.108;2023-02-28T02:51:01;-1.29;65.38
18361;SHT31;9308;48.550;9.108;2023-02-28T02:53:33;-1.55;66.49
18361;SHT31;9308;48.550;9.108;2023-02-28T02:56:01;-1.49;66.33
18361;SHT31;9308;48.550;9.108;2023-02-28T02:58:35;-1.55;66.47
18361;SHT31;9308;48.550;9.108;2023-02-28T03:01:08;-1.31;65.85
18361;SHT31;9308;48.550;9.108;2023-02-28T03:03:36;-1.19;65.38
18361;SHT31;9308;48.550;9.108;2023-02-28T03:06:02;-1.18;65.36
18361;SHT31;9308;48.550;9.108;2023-02-28T03:08:31;-1.07;65.56
18361;SHT31;9308;48.550;9.108;2023-02-28T03:11:04;-0.95;65.49
18361;SHT31;9308;48.550;9.108;2023-02-28T03:13:53;-1.01;65.36
18361;SHT31;9308;48.550;9.108;2023-02-28T03:24:50;-1.45;67.03
18361;SHT31;9308;48.550;9.108;2023-02-28T03:27:27;-1.12;66.56
18361;SHT31;9308;48.550;9.108;2023-02-28T03:30:08;-1.17;66.18
18361;SHT31;9308;48.550;9.108;2023-02-28T03:32:57;-1.08;66.07
18361;SHT31;9308;48.550;9.108;2023-02-28T03:35:26;-1.08;66.25
18361;SHT31;9308;48.550;9.108;2023-02-28T03:38:01;-0.94;66.00
18361;SHT31;9308;48.550;9.108;2023-02-28T03:40:30;-0.80;65.04
18361;SHT31;9308;48.550;9.108;2023-02-28T03:43:01;-0.91;65.86
18361;SHT31;9308;48.550;9.108;2023-02-28T03:45:33;-1.12;66.27
18361;SHT31;9308;48.550;9.108;2023-02-28T03:48:23;-1.15;67.39
18361;SHT31;9308;48.550;9.108;2023-02-28T03:50:54;-1.18;67.31
18361;SHT31;9308;48.550;9.108;2023-02-28T03:53:36;-1.14;66.81
18361;SHT31;9308;48.550;9.108;2023-02-28T03:56:18;-1.32;67.70
18361;SHT31;9308;48.550;9.108;2023-02-28T03:58:54;-1.19;67.40
18361;SHT31;9308;48.550;9.108;2023-02-28T04:01:42;-1.07;67.06
18361;SHT31;9308;48.550;9.108;2023-02-28T04:04:09;-1.21;67.76
18361;SHT31;9308;48.550;9.108;2023-02-28T04:06:36;-0.92;66.62
18361;SHT31;9308;48.550;9.108;2023-02-28T04:09:03;-1.22;67.73
18361;SHT31;9308;48.550;9.108;2023-02-28T04:11:33;-1.17;67.88
18361;SHT31;9308;48.550;9.108;2023-02-28T04:14:00;-0.80;67.31
18361;SHT31;9308;48.550;9.108;2023-02-28T04:16:25;-0.88;67.36
18361;SHT31;9308;48.550;9.108;2023-02-28T04:18:51;-1.11;67.77
18361;SHT31;9308;48.550;9.108;2023-02-28T04:21:17;-1.38;68.66
18361;SHT31;9308;48.550;9.108;2023-02-28T04:23:46;-1.43;69.25
18361;SHT31;9308;48.550;9.108;2023-02-28T04:26:11;-1.36;68.91
18361;SHT31;9308;48.550;9.108;2023-02-28T04:28:37;-1.29;68.48
18361;SHT31;9308;48.550;9.108;2023-02-28T04:31:04;-1.27;68.85
18361;SHT31;9308;48.550;9.108;2023-02-28T04:33:31;-1.11;68.41
18361;SHT31;9308;48.550;9.108;2023-02-28T04:36:05;-0.92;67.98
18361;SHT31;9308;48.550;9.108;2023-02-28T04:38:37;-1.04;68.26
18361;SHT31;9308;48.550;9.108;2023-02-28T04:41:03;-1.19;69.03
18361;SHT31;9308;48.550;9.108;2023-02-28T04:43:29;-1.02;68.45
18361;SHT31;9308;48.550;9.108;2023-02-28T04:45:56;-1.15;68.76
18361;SHT31;9308;48.550;9.108;2023-02-28T04:48:27;-0.97;68.44
18361;SHT31;9308;48.550;9.108;2023-02-28T04:50:53;-1.07;68.85
18361;SHT31;9308;48.550;9.108;2023-02-28T04:53:19;-1.19;69.87
18361;SHT31;9308;48.550;9.108;2023-02-28T04:55:44;-1.07;69.42
18361;SHT31;9308;48.550;9.108;2023-02-28T04:58:10;-1.08;69.66
18361;SHT31;9308;48.550;9.108;2023-02-28T05:00:35;-1.19;69.63
18361;SHT31;9308;48.550;9.108;2023-02-28T05:03:01;-1.15;70.52
18361;SHT31;9308;48.550;9.108;2023-02-28T05:05:26;-1.17;69.84
18361;SHT31;9308;48.550;9.108;2023-02-28T05:07:52;-1.07;70.18
18361;SHT31;9308;48.550;9.108;2023-02-28T05:10:19;-1.05;69.78
18361;SHT31;9308;48.550;9.108;2023-02-28T05:12:45;-1.04;70.33
18361;SHT31;9308;48.550;9.108;2023-02-28T05:15:15;-1.15;70.12
18361;SHT31;9308;48.550;9.108;2023-02-28T05:17:41;-1.17;70.36
18361;SHT31;9308;48.550;9.108;2023-02-28T05:20:08;-0.97;70.58
18361;SHT31;9308;48.550;9.108;2023-02-28T05:22:36;-1.07;70.13
18361;SHT31;9308;48.550;9.108;2023-02-28T05:25:03;-1.04;70.89
18361;SHT31;9308;48.550;9.108;2023-02-28T05:27:30;-1.05;70.76
18361;SHT31;9308;48.550;9.108;2023-02-28T05:29:55;-1.17;70.94
18361;SHT31;9308;48.550;9.108;2023-02-28T05:32:21;-1.15;71.07
18361;SHT31;9308;48.550;9.108;2023-02-28T05:34:47;-1.12;71.19
18361;SHT31;9308;48.550;9.108;2023-02-28T05:37:13;-1.08;70.94
18361;SHT31;9308;48.550;9.108;2023-02-28T05:39:39;-0.87;70.70
18361;SHT31;9308;48.550;9.108;2023-02-28T05:42:05;-0.85;70.34
18361;SHT31;9308;48.550;9.108;2023-02-28T05:44:30;-1.04;70.83
18361;SHT31;9308;48.550;9.108;2023-02-28T05:46:56;-1.18;70.80
18361;SHT31;9308;48.550;9.108;2023-02-28T05:49:21;-0.76;70.30
18361;SHT31;9308;48.550;9.108;2023-02-28T05:51:47;-0.67;70.04
18361;SHT31;9308;48.550;9.108;2023-02-28T05:54:12;-0.77;70.05
18361;SHT31;9308;48.550;9.108;2023-02-28T05:56:38;-0.90;70.30
18361;SHT31;9308;48.550;9.108;2023-02-28T05:59:09;-0.67;69.53
18361;SHT31;9308;48.550;9.108;2023-02-28T06:01:41;-0.85;69.79
18361;SHT31;9308;48.550;9.108;2023-02-28T06:04:08;-0.98;70.39
18361;SHT31;9308;48.550;9.108;2023-02-28T06:06:34;-1.05;70.72
18361;SHT31;9308;48.550;9.108;2023-02-28T06:09:01;-0.92;70.57
18361;SHT31;9308;48.550;9.108;2023-02-28T06:11:27;-0.94;70.42
18361;SHT31;9308;48.550;9.108;2023-02-28T06:13:55;-0.90;70.12
18361;SHT31;9308;48.550;9.108;2023-02-28T06:16:22;-1.02;70.54
18361;SHT31;9308;48.550;9.108;2023-02-28T06:18:47;-1.08;70.53
18361;SHT31;9308;48.550;9.108;2023-02-28T06:21:13;-0.98;70.46
18361;SHT31;9308;48.550;9.108;2023-02-28T06:23:38;-0.70;69.87
18361;SHT31;9308;48.550;9.108;2023-02-28T06:26:04;-0.62;69.27
18361;SHT31;9308;48.550;9.108;2023-02-28T06:28:30;-0.79;69.32
18361;SHT31;9308;48.550;9.108;2023-02-28T06:30:55;-0.49;68.89
18361;SHT31;9308;48.550;9.108;2023-02-28T06:33:20;-0.42;68.57
18361;SHT31;9308;48.550;9.108;2023-02-28T06:35:49;-0.26;67.61
18361;SHT31;9308;48.550;9.108;2023-02-28T06:38:15;-0.36;68.52
18361;SHT31;9308;48.550;9.108;2023-02-28T06:40:40;-0.50;67.92
18361;SHT31;9308;48.550;9.108;2023-02-28T06:43:06;-0.32;68.63
18361;SHT31;9308;48.550;9.108;2023-02-28T06:45:32;-0.48;67.78
18361;SHT31;9308;48.550;9.108;2023-02-28T06:47:57;-0.56;68.13
18361;SHT31;9308;48.550;9.108;2023-02-28T06:50:23;-0.69;67.80
18361;SHT31;9308;48.550;9.108;2023-02-28T06:52:48;-0.24;67.58
18361;SHT31;9308;48.550;9.108;2023-02-28T06:55:19;-0.29;67.59
18361;SHT31;9308;48.550;9.108;2023-02-28T06:57:44;-0.32;67.48
18361;SHT31;9308;48.550;9.108;2023-02-28T07:00:11;-0.19;67.12
18361;SHT31;9308;48.550;9.108;2023-02-28T07:02:36;-0.49;67.53
18361;SHT31;9308;48.550;9.108;2023-02-28T07:05:03;-0.48;67.28
18361;SHT31;9308;48.550;9.108;2023-02-28T07:07:29;-0.25;67.05
18361;SHT31;9308;48.550;9.108;2023-02-28T07:09:55;-0.57;67.42
18361;SHT31;9308;48.550;9.108;2023-02-28T07:12:21;-0.19;67.06
18361;SHT31;9308;48.550;9.108;2023-02-28T07:14:47;-0.31;66.96
18361;SHT31;9308;48.550;9.108;2023-02-28T07:17:12;-0.41;67.59
18361;SHT31;9308;48.550;9.108;2023-02-28T07:19:38;-0.24;67.23
18361;SHT31;9308;48.550;9.108;2023-02-28T07:22:04;-0.14;66.94
18361;SHT31;9308;48.550;9.108;2023-02-28T07:24:30;-0.26;66.60
18361;SHT31;9308;48.550;9.108;2023-02-28T07:26:56;-0.22;66.69
18361;SHT31;9308;48.550;9.108;2023-02-28T07:29:21;0.04;66.12
18361;SHT31;9308;48.550;9.108;2023-02-28T07:31:47;0.10;65.99
18361;SHT31;9308;48.550;9.108;2023-02-28T07:34:13;-0.25;66.23
18361;SHT31;9308;48.550;9.108;2023-02-28T07:36:39;-0.08;66.19
18361;SHT31;9308;48.550;9.108;2023-02-28T07:39:04;0.20;65.88
18361;SHT31;9308;48.550;9.108;2023-02-28T07:41:30;0.04;65.53
18361;SHT31;9308;48.550;9.108;2023-02-28T07:43:58;-0.10;66.10
18361;SHT31;9308;48.550;9.108;2023-02-28T07:46:25;-0.08;66.03
18361;SHT31;9308;48.550;9.108;2023-02-28T07:48:51;0.20;65.48
18361;SHT31;9308;48.550;9.108;2023-02-28T07:51:17;-0.25;66.39
18361;SHT31;9308;48.550;9.108;2023-02-28T07:53:42;-0.18;66.56
18361;SHT31;9308;48.550;9.108;2023-02-28T07:56:08;-0.08;66.43
18361;SHT31;9308;48.550;9.108;2023-02-28T07:58:33;0.13;65.85
18361;SHT31;9308;48.550;9.108;2023-02-28T08:01:09;-0.18;66.30
18361;SHT31;9308;48.550;9.108;2023-02-28T08:03:35;-0.01;66.20
18361;SHT31;9308;48.550;9.108;2023-02-28T08:06:02;0.19;65.46
18361;SHT31;9308;48.550;9.108;2023-02-28T08:08:28;0.30;65.20
18361;SHT31;9308;48.550;9.108;2023-02-28T08:11:01;0.23;65.76
18361;SHT31;9308;48.550;9.108;2023-02-28T08:13:28;0.17;65.73
18361;SHT31;9308;48.550;9.108;2023-02-28T08:15:55;0.34;64.90
18361;SHT31;9308;48.550;9.108;2023-02-28T08:18:21;0.27;65.03
18361;SHT31;9308;48.550;9.108;2023-02-28T08:20:47;0.19;65.25
18361;SHT31;9308;48.550;9.108;2023-02-28T08:23:13;0.31;65.70
18361;SHT31;9308;48.550;9.108;2023-02-28T08:25:38;0.30;64.92
18361;SHT31;9308;48.550;9.108;2023-02-28T08:28:04;-0.13;65.41
18361;SHT31;9308;48.550;9.108;2023-02-28T08:30:29;0.26;65.56
18361;SHT31;9308;48.550;9.108;2023-02-28T08:32:55;0.37;64.96
18361;SHT31;9308;48.550;9.108;2023-02-28T08:35:21;0.50;64.31
18361;SHT31;9308;48.550;9.108;2023-02-28T08:37:50;0.61;64.14
18361;SHT31;9308;48.550;9.108;2023-02-28T08:40:16;0.44;64.14
18361;SHT31;9308;48.550;9.108;2023-02-28T08:42:44;0.55;63.71
18361;SHT31;9308;48.550;9.108;2023-02-28T08:45:10;0.85;63.62
18361;SHT31;9308;48.550;9.108;2023-02-28T08:47:36;0.83;63.59
18361;SHT31;9308;48.550;9.108;2023-02-28T08:50:02;1.23;62.92
18361;SHT31;9308;48.550;9.108;2023-02-28T08:52:27;1.13;62.26
18361;SHT31;9308;48.550;9.108;2023-02-28T08:54:53;1.22;61.73
18361;SHT31;9308;48.550;9.108;2023-02-28T08:57:19;0.96;61.41
18361;SHT31;9308;48.550;9.108;2023-02-28T08:59:44;1.23;61.58
18361;SHT31;9308;48.550;9.108;2023-02-28T09:02:13;1.50;61.05
18361;SHT31;9308;48.550;9.108;2023-02-28T09:04:40;1.44;60.55
18361;SHT31;9308;48.550;9.108;2023-02-28T09:07:06;1.38;60.21
18361;SHT31;9308;48.550;9.108;2023-02-28T09:09:31;1.10;61.15
18361;SHT31;9308;48.550;9.108;2023-02-28T09:11:57;1.17;60.82
18361;SHT31;9308;48.550;9.108;2023-02-28T09:14:23;1.33;60.49
18361;SHT31;9308;48.550;9.108;2023-02-28T09:16:49;1.45;60.63
18361;SHT31;9308;48.550;9.108;2023-02-28T09:19:14;1.47;60.01
18361;SHT31;9308;48.550;9.108;2023-02-28T09:21:40;1.40;59.82
18361;SHT31;9308;48.550;9.108;2023-02-28T09:24:06;1.68;59.68
18361;SHT31;9308;48.550;9.108;2023-02-28T09:26:31;1.71;59.20
18361;SHT31;9308;48.550;9.108;2023-02-28T09:28:57;1.54;59.01
18361;SHT31;9308;48.550;9.108;2023-02-28T09:31:26;1.62;59.39
18361;SHT31;9308;48.550;9.108;2023-02-28T09:33:55;2.02;58.71
18361;SHT31;9308;48.550;9.108;2023-02-28T09:36:22;2.00;58.07
18361;SHT31;9308;48.550;9.108;2023-02-28T09:38:48;1.85;58.50
18361;SHT31;9308;48.550;9.108;2023-02-28T09:41:20;1.92;58.63
18361;SHT31;9308;48.550;9.108;2023-02-28T09:43:53;1.92;57.61
18361;SHT31;9308;48.550;9.108;2023-02-28T09:46:38;1.51;59.00
18361;SHT31;9308;48.550;9.108;2023-02-28T09:49:14;1.78;58.53
18361;SHT31;9308;48.550;9.108;2023-02-28T09:54:19;2.57;57.63
18361;SHT31;9308;48.550;9.108;2023-02-28T09:56:48;2.66;57.04
18361;SHT31;9308;48.550;9.108;2023-02-28T10:05:02;2.72;56.45
18361;SHT31;9308;48.550;9.108;2023-02-28T10:07:48;2.72;56.31
18361;SHT31;9308;48.550;9.108;2023-02-28T10:10:31;2.83;55.81
18361;SHT31;9308;48.550;9.108;2023-02-28T10:13:00;2.80;55.92
18361;SHT31;9308;48.550;9.108;2023-02-28T10:15:30;2.69;55.78
18361;SHT31;9308;48.550;9.108;2023-02-28T10:18:09;2.86;56.11
18361;SHT31;9308;48.550;9.108;2023-02-28T10:20:39;3.00;55.93
18361;SHT31;9308;48.550;9.108;2023-02-28T10:23:20;3.20;54.64
18361;SHT31;9308;48.550;9.108;2023-02-28T10:25:57;3.43;54.14
18361;SHT31;9308;48.550;9.108;2023-02-28T10:28:25;3.25;54.07
18361;SHT31;9308;48.550;9.108;2023-02-28T10:30:52;3.31;54.20
18361;SHT31;9308;48.550;9.108;2023-02-28T10:33:32;2.65;55.50
18361;SHT31;9308;48.550;9.108;2023-02-28T10:35:59;2.80;55.25
18361;SHT31;9308;48.550;9.108;2023-02-28T10:38:37;3.23;54.83
18361;SHT31;9308;48.550;9.108;2023-02-28T10:41:32;3.41;54.85
18361;SHT31;9308;48.550;9.108;2023-02-28T10:44:20;3.31;54.73
18361;SHT31;9308;48.550;9.108;2023-02-28T10:46:46;3.34;54.38
18361;SHT31;9308;48.550;9.108;2023-02-28T10:49:20;3.78;53.70
18361;SHT31;9308;48.550;9.108;2023-02-28T10:51:49;3.96;53.03
18361;SHT31;9308;48.550;9.108;2023-02-28T10:54:19;4.27;52.78
18361;SHT31;9308;48.550;9.108;2023-02-28T10:56:44;3.79;53.27
18361;SHT31;9308;48.550;9.108;2023-02-28T10:59:29;4.32;51.49
18361;SHT31;9308;48.550;9.108;2023-02-28T11:01:56;4.45;51.77
18361;SHT31;9308;48.550;9.108;2023-02-28T11:06:48;4.75;51.50
18361;SHT31;9308;48.550;9.108;2023-02-28T11:09:33;4.89;50.74
18361;SHT31;9308;48.550;9.108;2023-02-28T11:12:01;5.20;50.40
18361;SHT31;9308;48.550;9.108;2023-02-28T11:14:29;5.20;49.60
18361;SHT31;9308;48.550;9.108;2023-02-28T11:17:00;4.66;50.23
18361;SHT31;9308;48.550;9.108;2023-02-28T11:19:38;4.69;51.32
18361;SHT31;9308;48.550;9.108;2023-02-28T11:22:05;4.62;50.53
18361;SHT31;9308;48.550;9.108;2023-02-28T11:24:37;4.71;50.59
18361;SHT31;9308;48.550;9.108;2023-02-28T11:27:05;5.03;50.15
18361;SHT31;9308;48.550;9.108;2023-02-28T11:29:32;5.15;50.63
18361;SHT31;9308;48.550;9.108;2023-02-28T11:32:22;6.04;49.09
18361;SHT31;9308;48.550;9.108;2023-02-28T11:37:37;6.93;46.49
18361;SHT31;9308;48.550;9.108;2023-02-28T11:40:18;5.17;49.95
18361;SHT31;9308;48.550;9.108;2023-02-28T12:05:11;10.80;37.44
18361;SHT31;9308;48.550;9.108;2023-02-28T12:07:50;22.98;22.81
18361;SHT31;9308;48.550;9.108;2023-02-28T12:10:25;21.51;21.95
18361;SHT31;9308;48.550;9.108;2023-02-28T12:15:48;15.30;28.10
18361;SHT31;9308;48.550;9.108;2023-02-28T12:18:52;13.45;31.55
18361;SHT31;9308;48.550;9.108;2023-02-28T12:21:43;10.20;36.57
18361;SHT31;9308;48.550;9.108;2023-02-28T12:24:36;17.37;26.56
18361;SHT31;9308;48.550;9.108;2023-02-28T12:27:07;23.39;20.30
18361;SHT31;9308;48.550;9.108;2023-02-28T12:32:45;28.49;16.74
18361;SHT31;9308;48.550;9.108;2023-02-28T12:35:18;27.59;16.87
18361;SHT31;9308;48.550;9.108;2023-02-28T12:37:56;27.54;16.94
18361;SHT31;9308;48.550;9.108;2023-02-28T12:43:09;25.90;17.77
18361;SHT31;9308;48.550;9.108;2023-02-28T12:45:46;25.89;17.34
18361;SHT31;9308;48.550;9.108;2023-02-28T12:48:15;17.03;26.37
18361;SHT31;9308;48.550;9.108;2023-02-28T12:50:42;17.37;28.33
18361;SHT31;9308;48.550;9.108;2023-02-28T12:56:09;14.72;29.03
18361;SHT31;9308;48.550;9.108;2023-02-28T12:58:55;13.58;30.98
18361;SHT31;9308;48.550;9.108;2023-02-28T13:08:01;13.62;31.38
18361;SHT31;9308;48.550;9.108;2023-02-28T13:14:00;15.50;29.36
18361;SHT31;9308;48.550;9.108;2023-02-28T13:16:26;14.97;29.82
18361;SHT31;9308;48.550;9.108;2023-02-28T13:18:52;11.20;34.68
18361;SHT31;9308;48.550;9.108;2023-02-28T13:21:27;11.21;35.72
18361;SHT31;9308;48.550;9.108;2023-02-28T13:34:27;9.04;40.02
18361;SHT31;9308;48.550;9.108;2023-02-28T13:56:04;6.66;46.04
18361;SHT31;9308;48.550;9.108;2023-02-28T14:06:35;6.46;46.79
18361;SHT31;9308;48.550;9.108;2023-02-28T14:11:36;6.21;46.64
18361;SHT31;9308;48.550;9.108;2023-02-28T14:14:03;6.24;47.19
18361;SHT31;9308;48.550;9.108;2023-02-28T14:16:45;6.59;46.67
18361;SHT31;9308;48.550;9.108;2023-02-28T14:19:15;6.69;46.27
18361;SHT31;9308;48.550;9.108;2023-02-28T14:21:59;6.80;46.89
18361;SHT31;9308;48.550;9.108;2023-02-28T14:29:59;6.49;46.61
18361;SHT31;9308;48.550;9.108;2023-02-28T14:32:45;6.29;46.79
18361;SHT31;9308;48.550;9.108;2023-02-28T14:37:51;6.28;47.89
18361;SHT31;9308;48.550;9.108;2023-02-28T14:40:28;6.21;47.92
18361;SHT31;9308;48.550;9.108;2023-02-28T14:43:00;6.41;47.45
18361;SHT31;9308;48.550;9.108;2023-02-28T14:45:29;6.49;47.46
18361;SHT31;9308;48.550;9.108;2023-02-28T14:47:56;6.44;46.75
18361;SHT31;9308;48.550;9.108;2023-02-28T14:50:35;6.45;46.38
18361;SHT31;9308;48.550;9.108;2023-02-28T14:53:01;6.29;47.38
18361;SHT31;9308;48.550;9.108;2023-02-28T14:55:33;6.58;46.42
18361;SHT31;9308;48.550;9.108;2023-02-28T14:58:04;6.49;47.10
18361;SHT31;9308;48.550;9.108;2023-02-28T15:00:34;6.17;47.56
18361;SHT31;9308;48.550;9.108;2023-02-28T15:03:11;6.59;47.29
18361;SHT31;9308;48.550;9.108;2023-02-28T15:05:57;6.50;46.75
18361;SHT31;9308;48.550;9.108;2023-02-28T15:08:23;6.49;47.31
18361;SHT31;9308;48.550;9.108;2023-02-28T15:10:58;6.68;46.39
18361;SHT31;9308;48.550;9.108;2023-02-28T15:13:39;6.79;46.42
18361;SHT31;9308;48.550;9.108;2023-02-28T15:16:12;6.90;46.45
18361;SHT31;9308;48.550;9.108;2023-02-28T15:21:45;6.35;47.56
18361;SHT31;9308;48.550;9.108;2023-02-28T15:26:55;6.58;47.20
18361;SHT31;9308;48.550;9.108;2023-02-28T15:29:23;6.58;46.65
18361;SHT31;9308;48.550;9.108;2023-02-28T15:32:01;5.91;48.24
18361;SHT31;9308;48.550;9.108;2023-02-28T15:36:55;6.32;47.38
18361;SHT31;9308;48.550;9.108;2023-02-28T15:39:26;6.11;47.55
18361;SHT31;9308;48.550;9.108;2023-02-28T15:42:16;6.16;48.33
18361;SHT31;9308;48.550;9.108;2023-02-28T15:44:42;6.14;47.74
18361;SHT31;9308;48.550;9.108;2023-02-28T15:47:16;6.29;47.61
18361;SHT31;9308;48.550;9.108;2023-02-28T15:52:18;6.44;47.50
18361;SHT31;9308;48.550;9.108;2023-02-28T15:54:45;5.99;48.19
18361;SHT31;9308;48.550;9.108;2023-02-28T15:57:20;5.91;48.34
18361;SHT31;9308;48.550;9.108;2023-02-28T15:59:54;6.00;49.03
18361;SHT31;9308;48.550;9.108;2023-02-28T16:02:36;5.65;48.77
18361;SHT31;9308;48.550;9.108;2023-02-28T16:07:38;5.27;49.93
18361;SHT31;9308;48.550;9.108;2023-02-28T16:10:06;5.44;50.01
18361;SHT31;9308;48.550;9.108;2023-02-28T16:12:36;5.39;49.91
18361;SHT31;9308;48.550;9.108;2023-02-28T16:15:06;5.28;49.74
18361;SHT31;9308;48.550;9.108;2023-02-28T16:17:35;5.45;49.69
18361;SHT31;9308;48.550;9.108;2023-02-28T16:20:01;5.49;50.05
18361;SHT31;9308;48.550;9.108;2023-02-28T16:22:26;5.44;49.95
18361;SHT31;9308;48.550;9.108;2023-02-28T16:24:52;5.28;50.23
18361;SHT31;9308;48.550;9.108;2023-02-28T16:27:27;5.15;50.73
18361;SHT31;9308;48.550;9.108;2023-02-28T16:29:53;5.13;50.46
18361;SHT31;9308;48.550;9.108;2023-02-28T16:32:19;4.97;50.65
18361;SHT31;9308;48.550;9.108;2023-02-28T16:34:44;5.18;50.68
18361;SHT31;9308;48.550;9.108;2023-02-28T16:37:17;5.30;50.50
18361;SHT31;9308;48.550;9.108;2023-02-28T16:39:44;5.21;50.48
18361;SHT31;9308;48.550;9.108;2023-02-28T16:42:24;5.01;50.77
18361;SHT31;9308;48.550;9.108;2023-02-28T16:44:50;4.93;51.05
18361;SHT31;9308;48.550;9.108;2023-02-28T16:47:17;4.72;51.92
18361;SHT31;9308;48.550;9.108;2023-02-28T16:49:42;4.57;52.02
18361;SHT31;9308;48.550;9.108;2023-02-28T16:52:11;4.76;52.05
18361;SHT31;9308;48.550;9.108;2023-02-28T16:54:40;4.69;52.03
18361;SHT31;9308;48.550;9.108;2023-02-28T16:57:12;4.42;52.72
18361;SHT31;9308;48.550;9.108;2023-02-28T16:59:40;4.37;52.81
18361;SHT31;9308;48.550;9.108;2023-02-28T17:02:12;4.31;53.26
18361;SHT31;9308;48.550;9.108;2023-02-28T17:04:38;4.06;53.66
18361;SHT31;9308;48.550;9.108;2023-02-28T17:07:03;4.06;53.56
18361;SHT31;9308;48.550;9.108;2023-02-28T17:09:28;3.96;53.86
18361;SHT31;9308;48.550;9.108;2023-02-28T17:11:54;4.01;54.18
18361;SHT31;9308;48.550;9.108;2023-02-28T17:14:19;4.04;54.00
18361;SHT31;9308;48.550;9.108;2023-02-28T17:16:46;3.73;54.21
18361;SHT31;9308;48.550;9.108;2023-02-28T17:19:14;3.52;55.11
18361;SHT31;9308;48.550;9.108;2023-02-28T17:21:40;3.56;54.96
18361;SHT31;9308;48.550;9.108;2023-02-28T17:24:07;3.69;55.03
18361;SHT31;9308;48.550;9.108;2023-02-28T17:26:33;3.63;54.85
18361;SHT31;9308;48.550;9.108;2023-02-28T17:28:58;3.48;55.34
18361;SHT31;9308;48.550;9.108;2023-02-28T17:31:25;3.31;56.12
18361;SHT31;9308;48.550;9.108;2023-02-28T17:33:51;3.27;56.02
18361;SHT31;9308;48.550;9.108;2023-02-28T17:36:22;3.20;56.07
18361;SHT31;9308;48.550;9.108;2023-02-28T17:38:49;3.16;56.40
18361;SHT31;9308;48.550;9.108;2023-02-28T17:41:15;3.18;56.26
18361;SHT31;9308;48.550;9.108;2023-02-28T17:43:40;3.10;56.48
18361;SHT31;9308;48.550;9.108;2023-02-28T17:46:14;3.07;56.70
18361;SHT31;9308;48.550;9.108;2023-02-28T17:48:40;3.04;56.73
18361;SHT31;9308;48.550;9.108;2023-02-28T17:51:06;3.21;56.47
18361;SHT31;9308;48.550;9.108;2023-02-28T17:53:31;2.83;57.22
18361;SHT31;9308;48.550;9.108;2023-02-28T17:55:56;2.82;57.49
18361;SHT31;9308;48.550;9.108;2023-02-28T17:58:22;2.90;57.39
18361;SHT31;9308;48.550;9.108;2023-02-28T18:00:47;2.95;56.69
18361;SHT31;9308;48.550;9.108;2023-02-28T18:03:19;2.92;57.12
18361;SHT31;9308;48.550;9.108;2023-02-28T18:05:46;2.95;57.18
18361;SHT31;9308;48.550;9.108;2023-02-28T18:08:12;2.85;57.32
18361;SHT31;9308;48.550;9.108;2023-02-28T18:10:38;2.83;57.40
18361;SHT31;9308;48.550;9.108;2023-02-28T18:13:03;2.86;57.46
18361;SHT31;9308;48.550;9.108;2023-02-28T18:15:29;2.62;57.86
18361;SHT31;9308;48.550;9.108;2023-02-28T18:17:54;2.79;58.04
18361;SHT31;9308;48.550;9.108;2023-02-28T18:20:20;2.82;57.70
18361;SHT31;9308;48.550;9.108;2023-02-28T18:22:46;2.64;58.14
18361;SHT31;9308;48.550;9.108;2023-02-28T18:25:12;2.79;57.66
18361;SHT31;9308;48.550;9.108;2023-02-28T18:27:42;2.75;57.77
18361;SHT31;9308;48.550;9.108;2023-02-28T18:30:28;2.71;57.80
18361;SHT31;9308;48.550;9.108;2023-02-28T18:32:59;2.62;58.20
18361;SHT31;9308;48.550;9.108;2023-02-28T18:35:25;2.57;58.56
18361;SHT31;9308;48.550;9.108;2023-02-28T18:38:15;2.54;58.68